VEGT/GAU METAR and TAF weather

Enter ICAO airport designator
Station Type Date Time Source
VEGT METAR 2019/02/16 07:00 UTC NOAA

VEGT 160700Z 26006KT 2000 HZ SCT018 BKN100 24/17 Q1015 NOSIG


Station Type Date Time Source
VEGT Decoded METAR 2019/02/16 07:00 UTC NOAA

Gauhati, India (VEGT) 26-06N 091-35E 54M
Feb 16, 2019 - 02:00 AM EST / 2019.02.16 0700 UTC
Wind: from the W (260 degrees) at 7 MPH (6 KT):0
Visibility: 1 mile(s):0
Sky conditions: mostly cloudy
Weather: haze
Temperature: 75 F (24 C)
Dew Point: 62 F (17 C)
Relative Humidity: 64%
Pressure (altimeter): 29.97 in. Hg (1015 hPa)
ob: VEGT 160700Z 26006KT 2000 HZ SCT018 BKN100 24/17 Q1015 NOSIG
cycle: 7

Station Type Date Time Source
VEGT TAF 2016/03/24 00:45 UTC NOAA

TAF VEGT 242300Z 2500/2606 00000KT 2000 BR FEW020
BECMG 2503/2506 05008KT 4000 HZ
BECMG 2506/2509 5000 HZ
BECMG 2512/2514 00000KT 4000 HZ FEW020 SCT100
BECMG 2515/2518 2500 HZ
BECMG 2603/2606 05008KT 4000 HZ FEW020=


Example: see airport list